createdAt,value
2023-03-06T00:02:45.836Z,94.10
2023-03-06T00:05:31.007Z,94.30
2023-03-06T00:08:16.589Z,94.50
2023-03-06T00:11:02.078Z,95.10
2023-03-06T00:13:47.665Z,95.40
2023-03-06T00:16:33.408Z,95.90
2023-03-06T00:19:18.790Z,95.90
2023-03-06T00:22:04.464Z,95.80
2023-03-06T00:24:53.875Z,95.90
2023-03-06T00:27:39.313Z,95.70
2023-03-06T00:30:25.330Z,95.40
2023-03-06T00:33:11.288Z,95.80
2023-03-06T00:35:56.780Z,96.00
2023-03-06T00:38:42.256Z,95.90
2023-03-06T00:41:27.712Z,95.90
2023-03-06T00:44:13.368Z,96.20
2023-03-06T00:46:59.228Z,96.40
2023-03-06T00:49:45.518Z,96.40
2023-03-06T00:52:31.269Z,96.70
2023-03-06T00:55:16.609Z,96.70
2023-03-06T00:58:02.127Z,96.50
2023-03-06T01:00:47.789Z,96.20
2023-03-06T01:03:33.259Z,96.20
2023-03-06T01:06:19.057Z,96.40
2023-03-06T01:09:04.887Z,96.60
2023-03-06T01:11:50.452Z,96.50
2023-03-06T01:14:36.221Z,96.90
2023-03-06T01:17:21.661Z,96.70
2023-03-06T01:20:07.826Z,96.80
2023-03-06T01:22:55.441Z,96.50
2023-03-06T01:25:41.126Z,96.60
2023-03-06T01:28:27.231Z,96.40
2023-03-06T01:31:14.650Z,96.60
2023-03-06T01:33:59.931Z,96.30
2023-03-06T01:36:45.536Z,96.10
2023-03-06T01:39:31.616Z,96.50
2023-03-06T01:42:17.155Z,96.50
2023-03-06T01:45:31.655Z,96.50
2023-03-06T01:48:20.059Z,96.90
2023-03-06T01:51:05.896Z,97.10
2023-03-06T01:53:53.378Z,96.60
2023-03-06T01:56:43.216Z,96.40
2023-03-06T01:59:29.508Z,96.00
2023-03-06T02:02:16.280Z,95.70
2023-03-06T02:05:04.003Z,95.70
2023-03-06T02:07:51.173Z,95.20
2023-03-06T02:10:36.955Z,95.20
2023-03-06T02:13:22.674Z,95.60
2023-03-06T02:16:12.121Z,95.90
2023-03-06T02:19:00.881Z,96.00
2023-03-06T02:21:46.456Z,96.20
2023-03-06T02:24:48.053Z,96.40
2023-03-06T02:27:33.988Z,97.00
2023-03-06T02:30:19.846Z,96.90
2023-03-06T02:33:06.392Z,97.10
2023-03-06T02:35:59.057Z,97.00
2023-03-06T02:38:50.036Z,97.50
2023-03-06T02:41:36.733Z,97.40
2023-03-06T02:44:24.199Z,97.70
2023-03-06T02:47:09.583Z,97.80
2023-03-06T02:49:55.295Z,97.80
2023-03-06T02:52:41.076Z,98.10
2023-03-06T02:55:26.749Z,98.10
2023-03-06T02:58:14.374Z,98.40
2023-03-06T03:00:59.732Z,98.70
2023-03-06T03:03:45.863Z,98.70
2023-03-06T03:06:33.061Z,98.90
2023-03-06T03:09:19.068Z,98.90
2023-03-06T03:12:07.029Z,99.10
2023-03-06T03:14:52.726Z,98.90
2023-03-06T03:17:39.342Z,99.00
2023-03-06T03:20:24.860Z,99.20
2023-03-06T03:23:10.277Z,99.20
2023-03-06T03:25:55.980Z,99.20
2023-03-06T03:28:41.948Z,99.20
2023-03-06T03:31:28.934Z,99.30
2023-03-06T03:34:14.710Z,99.10
2023-03-06T03:37:01.557Z,99.00
2023-03-06T03:39:47.254Z,98.80
2023-03-06T03:42:33.429Z,99.00
2023-03-06T03:45:19.547Z,99.20
2023-03-06T03:48:05.207Z,99.10
2023-03-06T03:50:51.162Z,98.90
2023-03-06T03:53:38.498Z,98.90
2023-03-06T03:56:25.632Z,99.10
2023-03-06T03:59:20.966Z,99.10
2023-03-06T04:02:21.826Z,99.30
2023-03-06T04:05:18.868Z,99.40
2023-03-06T04:08:05.536Z,99.10
2023-03-06T04:10:53.106Z,98.90
2023-03-06T04:13:38.859Z,98.80
2023-03-06T04:16:24.954Z,98.60
2023-03-06T04:19:11.673Z,98.30
2023-03-06T04:21:58.014Z,98.10
2023-03-06T04:24:43.697Z,98.40
2023-03-06T04:27:29.208Z,98.20
2023-03-06T04:30:14.607Z,98.40
2023-03-06T04:33:00.543Z,98.50
2023-03-06T04:35:46.075Z,98.80
2023-03-06T04:38:36.978Z,98.80
2023-03-06T04:41:24.553Z,99.30
2023-03-06T04:44:09.989Z,99.10
2023-03-06T04:46:55.485Z,99.40
2023-03-06T04:49:41.197Z,99.90
2023-03-06T04:52:26.712Z,99.90
2023-03-06T04:55:14.980Z,99.90
2023-03-06T04:58:00.453Z,99.80
2023-03-06T05:00:46.150Z,99.90
2023-03-06T05:03:32.273Z,99.80
2023-03-06T05:06:17.888Z,99.70
2023-03-06T05:09:03.539Z,99.90
2023-03-06T05:11:49.172Z,99.80
2023-03-06T05:14:34.578Z,99.70
2023-03-06T05:17:20.115Z,99.50
2023-03-06T05:20:07.867Z,99.70
2023-03-06T05:22:53.513Z,99.50
2023-03-06T05:25:40.509Z,99.30
2023-03-06T05:28:27.015Z,99.50
2023-03-06T05:31:12.539Z,99.40
2023-03-06T05:33:58.872Z,99.30
2023-03-06T05:36:44.584Z,99.20
2023-03-06T05:39:30.265Z,99.10
2023-03-06T05:42:15.504Z,98.80
2023-03-06T05:45:02.265Z,98.70
2023-03-06T05:47:48.165Z,99.20
2023-03-06T05:50:34.125Z,99.30
2023-03-06T05:53:21.231Z,99.70
2023-03-06T05:56:11.121Z,99.70
2023-03-06T05:58:56.904Z,99.80
2023-03-06T06:01:42.497Z,99.80
2023-03-06T06:04:29.337Z,99.90
2023-03-06T06:07:16.540Z,99.90
2023-03-06T06:10:03.823Z,99.90
2023-03-06T06:12:49.874Z,99.90
2023-03-06T06:15:35.545Z,99.90
2023-03-06T06:18:21.354Z,99.90
2023-03-06T06:21:09.014Z,99.60
2023-03-06T06:23:54.682Z,99.90
2023-03-06T06:26:41.130Z,99.90
2023-03-06T06:29:28.312Z,99.90
2023-03-06T06:32:13.836Z,99.90
2023-03-06T06:34:59.588Z,99.90
2023-03-06T06:37:45.255Z,99.90
2023-03-06T06:40:30.677Z,99.90
2023-03-06T06:43:16.323Z,99.90
2023-03-06T06:46:23.076Z,99.90
2023-03-06T06:49:07.947Z,99.90
2023-03-06T06:51:53.900Z,99.90
2023-03-06T06:54:39.467Z,99.90
2023-03-06T06:57:25.065Z,99.90
2023-03-06T07:00:14.243Z,99.90
2023-03-06T07:03:00.275Z,99.90
2023-03-06T07:05:45.713Z,99.90
2023-03-06T07:08:31.620Z,99.90
2023-03-06T07:11:18.821Z,99.90
2023-03-06T07:14:04.452Z,99.90
2023-03-06T07:16:50.521Z,99.90
2023-03-06T07:19:38.622Z,99.90
2023-03-06T07:22:24.467Z,99.90
2023-03-06T07:25:10.482Z,99.90
2023-03-06T07:27:56.292Z,99.80
2023-03-06T07:30:42.517Z,99.80
2023-03-06T07:33:28.168Z,99.90
2023-03-06T07:36:14.253Z,99.80
2023-03-06T07:38:59.908Z,99.90
2023-03-06T07:41:45.483Z,99.90
2023-03-06T07:44:31.850Z,99.90
2023-03-06T07:47:17.575Z,99.90
2023-03-06T07:50:05.412Z,99.90
2023-03-06T07:52:52.212Z,99.90
2023-03-06T07:55:40.394Z,99.90
2023-03-06T07:58:26.707Z,99.90
2023-03-06T08:01:17.973Z,99.90
2023-03-06T08:04:04.501Z,99.90
2023-03-06T08:06:50.467Z,99.90
2023-03-06T08:09:36.516Z,99.00
2023-03-06T08:12:22.701Z,98.20
2023-03-06T08:15:11.076Z,98.80
2023-03-06T08:17:56.636Z,98.20
2023-03-06T08:20:42.197Z,98.70
2023-03-06T08:23:27.777Z,99.60
2023-03-06T08:26:19.342Z,98.50
2023-03-06T08:29:04.985Z,97.40
2023-03-06T08:31:50.816Z,97.50
2023-03-06T08:34:36.698Z,97.80
2023-03-06T08:37:22.643Z,97.60
2023-03-06T08:40:09.287Z,97.40
2023-03-06T08:42:54.765Z,96.60
2023-03-06T08:45:40.443Z,95.80
2023-03-06T08:48:26.018Z,95.90
2023-03-06T08:51:11.736Z,95.90
2023-03-06T08:53:58.016Z,95.10
2023-03-06T08:56:43.802Z,95.30
2023-03-06T08:59:29.407Z,94.40
2023-03-06T09:02:15.305Z,94.50
2023-03-06T09:05:01.403Z,93.20
2023-03-06T09:07:47.060Z,92.10
2023-03-06T09:10:32.658Z,92.20
2023-03-06T09:13:18.303Z,91.20
2023-03-06T09:16:04.050Z,91.70
2023-03-06T09:18:52.756Z,91.50
2023-03-06T09:21:38.839Z,91.30
2023-03-06T09:24:25.020Z,91.70
2023-03-06T09:27:10.947Z,92.20
2023-03-06T09:29:57.346Z,91.90
2023-03-06T09:32:43.347Z,91.80
2023-03-06T09:35:28.763Z,91.60
2023-03-06T09:38:14.419Z,91.00
2023-03-06T09:41:11.781Z,90.90
2023-03-06T09:44:09.028Z,88.90
2023-03-06T09:47:16.960Z,85.10
2023-03-06T09:50:11.704Z,84.60
2023-03-06T09:53:15.676Z,84.00
2023-03-06T09:56:10.109Z,84.10
2023-03-06T09:59:02.563Z,84.80
2023-03-06T10:02:22.173Z,83.70
2023-03-06T10:05:15.326Z,86.40
2023-03-06T10:08:24.242Z,86.90
2023-03-06T10:11:12.173Z,83.40
2023-03-06T10:14:49.149Z,83.50
2023-03-06T10:17:38.597Z,84.40
2023-03-06T10:20:33.753Z,84.10
2023-03-06T10:23:42.777Z,85.30
2023-03-06T10:26:52.467Z,82.80
2023-03-06T10:30:09.133Z,79.70
2023-03-06T10:33:01.638Z,80.00
2023-03-06T10:35:53.378Z,80.50
2023-03-06T10:38:38.907Z,79.30
2023-03-06T10:41:35.202Z,80.20
2023-03-06T10:44:23.462Z,79.40
2023-03-06T10:47:36.891Z,76.70
2023-03-06T10:50:29.020Z,75.70
2023-03-06T10:53:25.126Z,74.80
2023-03-06T10:56:10.394Z,75.30
2023-03-06T10:59:31.318Z,73.00
2023-03-06T11:02:33.270Z,75.20
2023-03-06T11:05:20.638Z,71.70
2023-03-06T11:08:22.507Z,70.60
2023-03-06T11:11:09.637Z,71.90
2023-03-06T11:13:59.284Z,72.20
2023-03-06T11:16:53.663Z,73.50
2023-03-06T11:19:39.062Z,73.10
2023-03-06T11:22:24.725Z,74.90
2023-03-06T11:25:14.905Z,72.70
2023-03-06T11:28:24.894Z,73.30
2023-03-06T11:31:15.390Z,71.80
2023-03-06T11:34:40.237Z,69.50
2023-03-06T11:37:26.005Z,70.40
2023-03-06T11:40:11.569Z,71.00
2023-03-06T11:43:17.391Z,69.50
2023-03-06T11:46:27.488Z,70.10
2023-03-06T11:49:24.135Z,68.80
2023-03-06T11:52:25.448Z,68.60
2023-03-06T11:55:16.426Z,70.70
2023-03-06T11:58:33.294Z,68.50
2023-03-06T12:01:31.080Z,66.60
2023-03-06T12:04:30.768Z,66.60
2023-03-06T12:08:03.326Z,66.30
2023-03-06T12:10:58.200Z,66.40
2023-03-06T12:13:46.721Z,65.60
2023-03-06T12:16:52.551Z,66.70
2023-03-06T12:19:46.883Z,65.50
2023-03-06T12:22:57.526Z,67.30
2023-03-06T12:26:09.296Z,67.40
2023-03-06T12:29:16.507Z,66.60
2023-03-06T12:32:25.939Z,67.50
2023-03-06T12:35:36.240Z,67.80
2023-03-06T12:38:33.881Z,66.90
2023-03-06T12:41:27.504Z,68.40
2023-03-06T12:44:42.504Z,68.90
2023-03-06T12:47:31.426Z,67.40
2023-03-06T12:50:32.030Z,69.00
2023-03-06T12:53:29.661Z,69.20
2023-03-06T12:56:18.239Z,70.10
2023-03-06T12:59:03.940Z,69.90
2023-03-06T13:02:17.939Z,70.10
2023-03-06T13:05:24.774Z,70.90
2023-03-06T13:08:42.661Z,70.80
2023-03-06T13:11:36.224Z,71.50
2023-03-06T13:14:34.264Z,71.30
2023-03-06T13:17:24.399Z,70.30
2023-03-06T13:20:16.260Z,71.10
2023-03-06T13:23:33.241Z,71.10
2023-03-06T13:26:25.196Z,72.00
2023-03-06T13:29:38.727Z,71.60
2023-03-06T13:32:30.313Z,71.20
2023-03-06T13:35:32.212Z,71.40
2023-03-06T13:38:36.754Z,71.80
2023-03-06T13:41:22.654Z,71.20
2023-03-06T13:44:23.289Z,71.00
2023-03-06T13:47:32.911Z,71.40
2023-03-06T13:50:40.105Z,70.90
2023-03-06T13:53:50.591Z,70.70
2023-03-06T13:56:54.526Z,71.20
2023-03-06T14:00:11.715Z,70.30
2023-03-06T14:03:34.656Z,71.10
2023-03-06T14:06:35.587Z,71.00
2023-03-06T14:09:29.077Z,71.40
2023-03-06T14:12:20.156Z,70.80
2023-03-06T14:15:35.901Z,69.30
2023-03-06T14:18:41.749Z,70.10
2023-03-06T14:21:45.527Z,70.70
2023-03-06T14:24:41.066Z,69.10
2023-03-06T14:27:49.123Z,67.60
2023-03-06T14:30:34.612Z,67.50
2023-03-06T14:33:34.709Z,67.30
2023-03-06T14:36:23.478Z,67.50
2023-03-06T14:39:21.213Z,66.60
2023-03-06T14:42:18.184Z,67.30
2023-03-06T14:45:24.827Z,67.40
2023-03-06T14:48:15.341Z,67.50
2023-03-06T14:51:02.694Z,67.60
2023-03-06T14:53:50.482Z,66.70
2023-03-06T14:56:41.588Z,66.50
2023-03-06T14:59:30.552Z,66.80
2023-03-06T15:02:24.048Z,67.80
2023-03-06T15:05:30.597Z,69.20
2023-03-06T15:08:21.553Z,70.40
2023-03-06T15:11:07.905Z,72.40
2023-03-06T15:14:02.085Z,72.70
2023-03-06T15:16:47.921Z,74.10
2023-03-06T15:19:40.591Z,74.10
2023-03-06T15:22:41.994Z,74.30
2023-03-06T15:25:30.920Z,74.40
2023-03-06T15:28:30.688Z,74.70
2023-03-06T15:31:21.075Z,75.00
2023-03-06T15:34:09.588Z,75.70
2023-03-06T15:36:57.654Z,76.30
2023-03-06T15:39:43.782Z,75.80
2023-03-06T15:42:33.811Z,75.30
2023-03-06T15:45:22.084Z,76.40
2023-03-06T15:48:16.948Z,76.00
2023-03-06T15:51:03.362Z,75.90
2023-03-06T15:53:49.367Z,76.40
2023-03-06T15:56:40.103Z,75.40
2023-03-06T15:59:27.904Z,74.20
2023-03-06T16:02:19.125Z,74.40
2023-03-06T16:05:15.142Z,73.20
2023-03-06T16:08:00.735Z,73.70
2023-03-06T16:10:47.009Z,72.90
2023-03-06T16:13:33.918Z,72.00
2023-03-06T16:16:24.419Z,72.40
2023-03-06T16:19:25.289Z,72.50
2023-03-06T16:22:11.980Z,73.50
2023-03-06T16:24:57.482Z,74.30
2023-03-06T16:27:55.563Z,72.80
2023-03-06T16:30:43.257Z,74.40
2023-03-06T16:33:28.925Z,74.10
2023-03-06T16:36:23.241Z,73.80
2023-03-06T16:39:17.191Z,73.10
2023-03-06T16:42:02.584Z,73.80
2023-03-06T16:44:48.214Z,73.70
2023-03-06T16:47:33.642Z,74.80
2023-03-06T16:50:31.209Z,74.80
2023-03-06T16:53:17.573Z,75.50
2023-03-06T16:56:03.076Z,75.40
2023-03-06T16:58:49.190Z,75.50
2023-03-06T17:01:34.989Z,76.20
2023-03-06T17:04:21.006Z,75.10
2023-03-06T17:07:06.738Z,74.80
2023-03-06T17:09:52.265Z,74.50
2023-03-06T17:12:38.388Z,74.20
2023-03-06T17:15:24.263Z,74.30
2023-03-06T17:18:09.817Z,73.70
2023-03-06T17:20:55.924Z,74.00
2023-03-06T17:23:42.492Z,75.20
2023-03-06T17:26:28.328Z,75.50
2023-03-06T17:29:14.348Z,75.60
2023-03-06T17:32:00.161Z,76.50
2023-03-06T17:34:45.965Z,77.20
2023-03-06T17:37:32.185Z,77.30
2023-03-06T17:40:18.158Z,78.00
2023-03-06T17:43:04.326Z,78.60
2023-03-06T17:45:49.918Z,80.40
2023-03-06T17:48:36.548Z,81.50
2023-03-06T17:51:22.549Z,81.50
2023-03-06T17:54:08.130Z,80.90
2023-03-06T17:56:53.918Z,80.70
2023-03-06T17:59:39.374Z,80.80
2023-03-06T18:02:25.086Z,81.20
2023-03-06T18:05:11.573Z,81.60
2023-03-06T18:07:57.190Z,82.50
2023-03-06T18:10:43.525Z,82.40
2023-03-06T18:13:29.371Z,83.00
2023-03-06T18:16:18.574Z,82.90
2023-03-06T18:19:04.432Z,82.40
2023-03-06T18:21:49.787Z,83.80
2023-03-06T18:24:36.807Z,82.30
2023-03-06T18:27:22.750Z,83.80
2023-03-06T18:30:09.432Z,83.60
2023-03-06T18:32:55.396Z,83.00
2023-03-06T18:35:43.975Z,84.20
2023-03-06T18:38:29.472Z,85.40
2023-03-06T18:41:16.446Z,86.00
2023-03-06T18:44:02.338Z,86.30
2023-03-06T18:46:48.132Z,86.20
2023-03-06T18:49:33.902Z,87.40
2023-03-06T18:52:19.625Z,87.70
2023-03-06T18:55:05.492Z,88.00
2023-03-06T18:57:51.091Z,87.90
2023-03-06T19:00:36.742Z,86.00
2023-03-06T19:03:22.221Z,86.40
2023-03-06T19:06:13.388Z,86.00
2023-03-06T19:08:59.042Z,85.00
2023-03-06T19:11:46.801Z,85.80
2023-03-06T19:14:32.803Z,86.40
2023-03-06T19:17:18.553Z,87.10
2023-03-06T19:20:04.868Z,86.90
2023-03-06T19:22:50.977Z,87.20
2023-03-06T19:25:37.071Z,88.50
2023-03-06T19:28:22.556Z,89.00
2023-03-06T19:31:25.176Z,89.30
2023-03-06T19:34:11.115Z,88.50
2023-03-06T19:36:56.684Z,88.40
2023-03-06T19:39:43.445Z,89.20
2023-03-06T19:42:29.999Z,89.00
2023-03-06T19:45:15.924Z,89.40
2023-03-06T19:48:01.692Z,89.10
2023-03-06T19:50:47.656Z,89.40
2023-03-06T19:53:35.204Z,88.60
2023-03-06T19:56:23.792Z,88.50
2023-03-06T19:59:10.219Z,89.00
2023-03-06T20:01:55.909Z,89.00
2023-03-06T20:04:41.610Z,89.00
2023-03-06T20:07:27.524Z,89.80
2023-03-06T20:10:13.284Z,90.60
2023-03-06T20:12:59.016Z,90.80
2023-03-06T20:15:44.871Z,91.10
2023-03-06T20:18:30.329Z,91.80
2023-03-06T20:21:16.732Z,91.50
2023-03-06T20:24:03.692Z,90.90
2023-03-06T20:26:51.082Z,90.80
2023-03-06T20:29:37.072Z,90.80
2023-03-06T20:32:22.899Z,90.90
2023-03-06T20:35:08.738Z,90.90
2023-03-06T20:37:54.524Z,90.60
2023-03-06T20:40:41.880Z,91.20
2023-03-06T20:43:27.330Z,91.50
2023-03-06T20:46:13.850Z,91.80
2023-03-06T20:49:00.166Z,91.70
2023-03-06T20:51:45.897Z,91.90
2023-03-06T20:54:31.625Z,92.20
2023-03-06T20:57:17.235Z,92.60
2023-03-06T21:00:03.747Z,92.60
2023-03-06T21:02:49.416Z,92.50
2023-03-06T21:05:34.952Z,92.70
2023-03-06T21:08:20.475Z,92.60
2023-03-06T21:11:06.026Z,92.10
2023-03-06T21:13:53.280Z,91.70
2023-03-06T21:16:39.204Z,91.70
2023-03-06T21:19:25.414Z,91.80
2023-03-06T21:22:11.098Z,91.50
2023-03-06T21:24:56.787Z,91.70
2023-03-06T21:27:42.316Z,91.60
2023-03-06T21:30:29.320Z,91.70
2023-03-06T21:33:16.114Z,91.70
2023-03-06T21:36:02.099Z,91.50
2023-03-06T21:38:49.956Z,91.80
2023-03-06T21:41:35.706Z,91.70
2023-03-06T21:44:21.264Z,91.60
2023-03-06T21:47:06.805Z,91.60
2023-03-06T21:49:52.175Z,91.60
2023-03-06T21:52:38.080Z,92.00
2023-03-06T21:55:23.850Z,92.10
2023-03-06T21:58:09.546Z,92.00
2023-03-06T22:00:55.107Z,92.30
2023-03-06T22:03:41.058Z,92.40
2023-03-06T22:06:28.646Z,91.50
2023-03-06T22:09:16.230Z,90.90
2023-03-06T22:12:03.695Z,90.50
2023-03-06T22:14:49.216Z,90.20
2023-03-06T22:17:35.003Z,90.50
2023-03-06T22:20:20.776Z,90.70
2023-03-06T22:23:06.552Z,90.70
2023-03-06T22:25:52.179Z,90.40
2023-03-06T22:28:37.963Z,90.10
2023-03-06T22:31:25.230Z,89.70
2023-03-06T22:34:11.217Z,89.10
2023-03-06T22:36:56.933Z,90.00
2023-03-06T22:39:42.441Z,89.10
2023-03-06T22:42:28.690Z,88.80
2023-03-06T22:45:14.545Z,89.10
2023-03-06T22:48:10.652Z,88.70
2023-03-06T22:51:11.929Z,88.30
2023-03-06T22:53:58.243Z,88.20
2023-03-06T22:56:44.015Z,87.40
2023-03-06T22:59:29.645Z,87.60
2023-03-06T23:02:15.296Z,88.00
2023-03-06T23:05:01.090Z,87.90
2023-03-06T23:07:47.692Z,87.60
2023-03-06T23:10:39.852Z,88.10
2023-03-06T23:13:44.037Z,88.20
2023-03-06T23:16:48.499Z,87.40
2023-03-06T23:19:53.486Z,87.70
2023-03-06T23:22:57.692Z,87.80
2023-03-06T23:26:01.778Z,87.50
2023-03-06T23:28:48.202Z,87.00
2023-03-06T23:31:33.922Z,86.80
2023-03-06T23:34:19.488Z,86.60
2023-03-06T23:37:04.990Z,86.80
2023-03-06T23:39:50.730Z,87.60
2023-03-06T23:42:36.206Z,86.90
2023-03-06T23:45:22.111Z,86.90
2023-03-06T23:48:08.042Z,86.80
2023-03-06T23:50:54.330Z,86.70
2023-03-06T23:53:40.487Z,87.00
2023-03-06T23:56:27.901Z,86.40
2023-03-06T23:59:13.745Z,86.80
